createdAt,value
2018-02-03T00:00:14.221Z,2.10
2018-02-03T00:01:16.692Z,3.00
2018-02-03T00:02:19.169Z,2.20
2018-02-03T00:03:21.686Z,1.97
2018-02-03T00:04:24.149Z,2.03
2018-02-03T00:05:26.629Z,1.70
2018-02-03T00:06:29.105Z,1.70
2018-02-03T00:07:31.566Z,2.00
2018-02-03T00:08:34.043Z,1.93
2018-02-03T00:09:36.517Z,2.10
2018-02-03T00:10:38.989Z,1.60
2018-02-03T00:11:41.444Z,1.83
2018-02-03T00:12:43.912Z,1.70
2018-02-03T00:13:46.386Z,1.50
2018-02-03T00:14:48.865Z,2.27
2018-02-03T00:15:51.349Z,1.77
2018-02-03T00:16:53.806Z,1.60
2018-02-03T00:17:56.276Z,1.60
2018-02-03T00:18:58.774Z,1.90
2018-02-03T00:20:01.245Z,1.80
2018-02-03T00:21:03.706Z,2.00
2018-02-03T00:22:06.176Z,1.80
2018-02-03T00:23:08.662Z,1.80
2018-02-03T00:24:11.152Z,1.93
2018-02-03T00:25:13.611Z,1.97
2018-02-03T00:26:16.066Z,2.00
2018-02-03T00:27:18.537Z,1.70
2018-02-03T00:28:21.031Z,1.70
2018-02-03T00:29:23.527Z,2.67
2018-02-03T00:30:25.997Z,1.70
2018-02-03T00:31:28.474Z,1.80
2018-02-03T00:32:30.953Z,1.70
2018-02-03T00:33:33.428Z,1.60
2018-02-03T00:34:35.906Z,2.00
2018-02-03T00:35:38.358Z,1.90
2018-02-03T00:36:40.823Z,1.40
2018-02-03T00:37:43.282Z,1.73
2018-02-03T00:38:45.752Z,1.70
2018-02-03T00:39:48.230Z,1.70
2018-02-03T00:40:50.687Z,1.60
2018-02-03T00:41:53.161Z,2.07
2018-02-03T00:42:55.622Z,1.40
2018-02-03T00:43:58.087Z,1.70
2018-02-03T00:45:00.575Z,1.93
2018-02-03T00:46:03.107Z,1.53
2018-02-03T00:47:05.585Z,2.07
2018-02-03T00:48:08.065Z,1.43
2018-02-03T00:49:10.537Z,1.80
2018-02-03T00:50:13.029Z,1.50
2018-02-03T00:51:15.486Z,1.50
2018-02-03T00:52:17.950Z,1.60
2018-02-03T00:53:20.426Z,1.80
2018-02-03T00:54:22.912Z,2.10
2018-02-03T00:55:25.412Z,1.43
2018-02-03T00:56:27.888Z,1.50
2018-02-03T00:57:30.364Z,1.43
2018-02-03T00:58:32.837Z,1.50
2018-02-03T00:59:35.308Z,1.63
2018-02-03T01:00:37.828Z,1.60
2018-02-03T01:01:40.300Z,1.57
2018-02-03T01:02:42.798Z,1.50
2018-02-03T01:03:45.260Z,1.40
2018-02-03T01:04:47.733Z,1.60
2018-02-03T01:05:50.224Z,1.70
2018-02-03T01:06:52.701Z,1.40
2018-02-03T01:07:55.177Z,1.50
2018-02-03T01:08:57.661Z,1.60
2018-02-03T01:10:00.119Z,1.17
2018-02-03T01:11:02.617Z,1.60
2018-02-03T01:12:05.094Z,1.43
2018-02-03T01:13:07.550Z,1.40
2018-02-03T01:14:10.045Z,1.57
2018-02-03T01:15:12.520Z,1.63
2018-02-03T01:16:15.013Z,1.33
2018-02-03T01:17:17.488Z,1.60
2018-02-03T01:18:19.972Z,1.70
2018-02-03T01:19:22.445Z,1.50
2018-02-03T01:20:24.912Z,1.50
2018-02-03T01:21:27.391Z,1.90
2018-02-03T01:22:29.860Z,1.50
2018-02-03T01:23:32.320Z,1.50
2018-02-03T01:24:34.798Z,1.43
2018-02-03T01:25:37.272Z,1.60
2018-02-03T01:26:39.754Z,1.70
2018-02-03T01:27:42.214Z,1.40
2018-02-03T01:28:44.667Z,1.57
2018-02-03T01:29:47.144Z,1.40
2018-02-03T01:30:49.616Z,1.40
2018-02-03T01:31:52.095Z,1.80
2018-02-03T01:32:54.571Z,1.50
2018-02-03T01:33:57.040Z,1.73
2018-02-03T01:34:59.497Z,1.30
2018-02-03T01:36:01.959Z,1.77
2018-02-03T01:37:04.439Z,1.47
2018-02-03T01:38:06.889Z,1.40
2018-02-03T01:39:09.351Z,1.57
2018-02-03T01:40:11.824Z,1.60
2018-02-03T01:41:14.300Z,1.50
2018-02-03T01:42:16.784Z,1.53
2018-02-03T01:43:19.257Z,1.70
2018-02-03T01:44:21.713Z,1.50
2018-02-03T01:45:24.167Z,1.20
2018-02-03T01:46:26.623Z,1.57
2018-02-03T01:49:07.910Z,1.23
2018-02-03T01:50:10.384Z,1.30
2018-02-03T01:51:12.865Z,1.53
2018-02-03T01:52:15.330Z,1.40
2018-02-03T01:53:17.799Z,1.37
2018-02-03T01:54:20.273Z,1.40
2018-02-03T01:55:22.731Z,1.30
2018-02-03T01:56:25.190Z,1.20
2018-02-03T01:57:27.655Z,1.50
2018-02-03T01:58:30.133Z,1.40
2018-02-03T01:59:32.604Z,1.57
2018-02-03T02:00:35.072Z,1.27
2018-02-03T02:01:37.604Z,1.50
2018-02-03T02:02:40.049Z,1.40
2018-02-03T02:03:42.524Z,1.60
2018-02-03T02:04:44.998Z,1.43
2018-02-03T02:05:47.454Z,1.20
2018-02-03T02:06:49.926Z,1.37
2018-02-03T02:07:52.396Z,1.30
2018-02-03T02:08:54.847Z,1.33
2018-02-03T02:09:57.307Z,1.40
2018-02-03T02:10:59.789Z,1.00
2018-02-03T02:12:02.275Z,1.20
2018-02-03T02:13:04.735Z,1.20
2018-02-03T02:14:07.198Z,1.10
2018-02-03T02:15:09.697Z,1.20
2018-02-03T02:16:12.150Z,1.40
2018-02-03T02:17:14.628Z,1.10
2018-02-03T02:18:17.087Z,1.23
2018-02-03T02:19:19.564Z,1.47
2018-02-03T02:20:22.041Z,1.03
2018-02-03T02:21:24.513Z,1.30
2018-02-03T02:22:26.985Z,1.57
2018-02-03T02:23:29.438Z,2.07
2018-02-03T02:24:31.890Z,1.70
2018-02-03T02:25:34.346Z,1.40
2018-02-03T02:26:36.821Z,1.40
2018-02-03T02:27:39.274Z,1.90
2018-02-03T02:28:41.761Z,1.30
2018-02-03T02:29:44.290Z,1.63
2018-02-03T02:30:46.722Z,1.27
2018-02-03T02:31:49.198Z,1.33
2018-02-03T02:32:51.654Z,1.30
2018-02-03T02:33:54.128Z,1.27
2018-02-03T02:34:56.616Z,1.53
2018-02-03T02:35:59.074Z,1.57
2018-02-03T02:37:01.545Z,1.70
2018-02-03T02:38:04.084Z,1.10
2018-02-03T02:39:06.494Z,1.20
2018-02-03T02:40:08.956Z,1.40
2018-02-03T02:41:11.422Z,1.10
2018-02-03T02:42:13.894Z,1.90
2018-02-03T02:43:16.374Z,1.70
2018-02-03T02:44:18.858Z,1.10
2018-02-03T02:45:21.316Z,1.10
2018-02-03T02:46:23.784Z,1.07
2018-02-03T02:47:26.253Z,1.10
2018-02-03T02:48:28.728Z,1.27
2018-02-03T02:49:31.333Z,1.10
2018-02-03T02:50:33.814Z,1.80
2018-02-03T02:51:36.283Z,1.20
2018-02-03T02:52:38.765Z,1.23
2018-02-03T02:53:41.218Z,1.53
2018-02-03T02:54:43.698Z,1.10
2018-02-03T02:55:46.158Z,1.17
2018-02-03T02:56:48.636Z,1.73
2018-02-03T02:57:51.110Z,1.20
2018-02-03T02:58:53.586Z,1.13
2018-02-03T02:59:56.046Z,1.00
2018-02-03T03:00:58.506Z,1.43
2018-02-03T03:02:00.989Z,1.20
2018-02-03T03:03:03.465Z,1.10
2018-02-03T03:04:05.942Z,1.20
2018-02-03T03:05:08.412Z,1.47
2018-02-03T03:06:10.885Z,1.00
2018-02-03T03:07:13.351Z,1.00
2018-02-03T03:08:15.815Z,1.53
2018-02-03T03:09:18.285Z,1.10
2018-02-03T03:10:20.755Z,1.30
2018-02-03T03:11:23.245Z,1.17
2018-02-03T03:12:25.725Z,1.00
2018-02-03T03:13:28.183Z,1.20
2018-02-03T03:14:30.643Z,1.20
2018-02-03T03:15:33.119Z,1.20
2018-02-03T03:16:35.600Z,1.40
2018-02-03T03:17:38.056Z,1.00
2018-02-03T03:18:40.561Z,1.00
2018-02-03T03:19:43.030Z,1.40
2018-02-03T03:20:45.492Z,1.20
2018-02-03T03:21:47.993Z,1.20
2018-02-03T03:22:50.461Z,1.57
2018-02-03T03:23:52.945Z,1.43
2018-02-03T03:24:55.404Z,1.20
2018-02-03T03:25:57.890Z,1.00
2018-02-03T03:27:00.361Z,1.40
2018-02-03T03:28:02.845Z,1.10
2018-02-03T03:29:05.320Z,1.00
2018-02-03T03:30:07.787Z,0.90
2018-02-03T03:31:10.269Z,1.30
2018-02-03T03:32:12.727Z,1.00
2018-02-03T03:33:15.182Z,1.10
2018-02-03T03:34:17.668Z,1.30
2018-02-03T03:35:20.122Z,1.33
2018-02-03T03:36:22.594Z,1.10
2018-02-03T03:37:25.111Z,1.47
2018-02-03T03:38:27.585Z,1.10
2018-02-03T03:39:30.051Z,1.83
2018-02-03T03:40:32.506Z,1.10
2018-02-03T03:41:34.962Z,1.77
2018-02-03T03:42:37.421Z,1.60
2018-02-03T03:43:39.878Z,1.20
2018-02-03T03:44:42.334Z,1.50
2018-02-03T03:45:44.813Z,1.03
2018-02-03T03:46:47.266Z,1.10
2018-02-03T03:47:49.741Z,1.17
2018-02-03T03:48:52.194Z,1.10
2018-02-03T03:49:54.647Z,1.20
2018-02-03T03:50:57.119Z,1.00
2018-02-03T03:51:59.621Z,1.20
2018-02-03T03:53:02.079Z,1.10
2018-02-03T03:54:04.539Z,1.10
2018-02-03T03:55:07.012Z,1.30
2018-02-03T03:56:09.484Z,0.90
2018-02-03T03:57:11.977Z,1.10
2018-02-03T03:58:14.448Z,1.20
2018-02-03T03:59:16.903Z,1.00
2018-02-03T04:00:19.406Z,0.93
2018-02-03T04:01:21.920Z,1.20
2018-02-03T04:02:24.426Z,1.23
2018-02-03T04:03:26.897Z,1.50
2018-02-03T04:04:29.371Z,1.00
2018-02-03T04:05:31.840Z,1.00
2018-02-03T04:06:34.320Z,1.10
2018-02-03T04:07:36.803Z,0.93
2018-02-03T04:08:39.267Z,1.10
2018-02-03T04:09:41.776Z,1.03
2018-02-03T04:10:44.252Z,1.20
2018-02-03T04:11:46.726Z,1.10
2018-02-03T04:12:49.230Z,1.00
2018-02-03T04:13:51.700Z,1.47
2018-02-03T04:14:54.159Z,1.00
2018-02-03T04:15:56.619Z,1.07
2018-02-03T04:16:59.074Z,1.37
2018-02-03T04:18:01.573Z,1.70
2018-02-03T04:19:04.030Z,1.00
2018-02-03T04:20:06.482Z,1.07
2018-02-03T04:21:08.953Z,1.00
2018-02-03T04:22:11.411Z,1.20
2018-02-03T04:23:13.905Z,0.90
2018-02-03T04:24:16.365Z,1.40
2018-02-03T04:25:18.846Z,0.90
2018-02-03T04:26:21.322Z,0.90
2018-02-03T04:27:23.793Z,1.00
2018-02-03T04:28:26.271Z,1.17
2018-02-03T04:29:28.754Z,1.10
2018-02-03T04:30:31.249Z,1.27
2018-02-03T04:31:33.715Z,1.10
2018-02-03T04:32:36.165Z,1.13
2018-02-03T04:33:38.642Z,1.30
2018-02-03T04:34:41.094Z,1.00
2018-02-03T04:35:43.561Z,1.00
2018-02-03T04:36:46.037Z,1.10
2018-02-03T04:37:48.514Z,1.67
2018-02-03T04:38:51.005Z,1.20
2018-02-03T04:39:53.459Z,1.10
2018-02-03T04:40:55.920Z,0.93
2018-02-03T04:41:58.376Z,1.00
2018-02-03T04:43:00.834Z,1.30
2018-02-03T04:44:03.310Z,1.33
2018-02-03T04:45:05.770Z,1.13
2018-02-03T04:46:08.245Z,1.07
2018-02-03T04:47:10.718Z,1.00
2018-02-03T04:48:13.183Z,0.83
2018-02-03T04:49:15.667Z,0.93
2018-02-03T04:50:18.161Z,1.10
2018-02-03T04:51:20.614Z,0.93
2018-02-03T04:52:23.070Z,1.50
2018-02-03T04:53:25.545Z,1.17
2018-02-03T04:54:28.075Z,1.23
2018-02-03T04:55:30.549Z,1.23
2018-02-03T04:56:33.040Z,1.00
2018-02-03T04:57:35.494Z,0.97
2018-02-03T04:58:37.950Z,1.23
2018-02-03T04:59:40.442Z,1.23
2018-02-03T05:00:42.933Z,1.23
2018-02-03T05:01:45.404Z,1.13
2018-02-03T05:02:47.901Z,0.80
2018-02-03T05:03:50.362Z,1.00
2018-02-03T05:04:52.850Z,0.90
2018-02-03T05:05:55.388Z,1.00
2018-02-03T05:06:57.872Z,0.93
2018-02-03T05:08:00.353Z,0.93
2018-02-03T05:09:02.806Z,1.00
2018-02-03T05:10:05.304Z,0.90
2018-02-03T05:11:07.763Z,1.27
2018-02-03T05:12:10.218Z,1.00
2018-02-03T05:13:12.717Z,1.00
2018-02-03T05:14:15.197Z,1.27
2018-02-03T05:15:17.688Z,1.10
2018-02-03T05:16:20.169Z,1.40
2018-02-03T05:17:22.678Z,1.10
2018-02-03T05:18:25.176Z,0.90
2018-02-03T05:19:27.642Z,1.10
2018-02-03T05:20:30.126Z,1.00
2018-02-03T05:21:32.582Z,1.00
2018-02-03T05:22:35.063Z,1.10
2018-02-03T05:23:37.537Z,1.00
2018-02-03T05:24:40.013Z,1.20
2018-02-03T05:25:42.508Z,1.00
2018-02-03T05:26:44.962Z,1.03
2018-02-03T05:27:47.437Z,1.10
2018-02-03T05:28:49.903Z,0.87
2018-02-03T05:29:52.373Z,1.00
2018-02-03T05:30:54.864Z,1.27
2018-02-03T05:31:57.333Z,1.80
2018-02-03T05:32:59.794Z,1.40
2018-02-03T05:34:02.246Z,1.20
2018-02-03T05:35:04.721Z,1.37
2018-02-03T05:36:07.237Z,1.37
2018-02-03T05:37:09.708Z,1.00
2018-02-03T05:38:12.165Z,1.07
2018-02-03T05:39:14.633Z,1.00
2018-02-03T05:40:17.091Z,1.93
2018-02-03T05:41:19.581Z,1.00
2018-02-03T05:42:22.034Z,1.50
2018-02-03T05:43:24.514Z,1.60
2018-02-03T05:44:29.589Z,1.30
2018-02-03T05:45:32.073Z,1.60
2018-02-03T05:46:34.573Z,1.37
2018-02-03T05:47:37.052Z,1.30
2018-02-03T05:48:39.515Z,1.23
2018-02-03T05:49:41.971Z,1.63
2018-02-03T05:50:44.435Z,1.90
2018-02-03T05:51:46.890Z,1.07
2018-02-03T05:52:49.361Z,1.40
2018-02-03T05:53:51.823Z,1.90
2018-02-03T05:54:54.296Z,1.70
2018-02-03T05:55:56.758Z,1.53
2018-02-03T05:56:59.213Z,1.90
2018-02-03T05:58:01.684Z,1.50
2018-02-03T05:59:04.157Z,1.30
2018-02-03T06:00:06.626Z,1.40
2018-02-03T06:01:09.101Z,1.57
2018-02-03T06:02:11.579Z,1.30
2018-02-03T06:03:14.108Z,1.30
2018-02-03T06:04:16.583Z,2.12
2018-02-03T06:05:19.045Z,1.40
2018-02-03T06:06:21.512Z,1.90
2018-02-03T06:07:23.985Z,1.70
2018-02-03T06:08:26.457Z,1.67
2018-02-03T06:09:28.933Z,1.60
2018-02-03T06:10:31.403Z,1.57
2018-02-03T06:11:33.858Z,1.47
2018-02-03T06:12:36.329Z,1.73
2018-02-03T06:13:38.792Z,1.43
2018-02-03T06:14:41.246Z,1.50
2018-02-03T06:15:43.720Z,1.63
2018-02-03T06:16:46.174Z,1.83
2018-02-03T06:17:48.626Z,1.93
2018-02-03T06:18:51.083Z,1.83
2018-02-03T06:19:53.543Z,1.40
2018-02-03T06:20:56.016Z,1.63
2018-02-03T06:21:58.470Z,2.80
2018-02-03T06:23:00.950Z,1.93
2018-02-03T06:24:03.406Z,1.43
2018-02-03T06:25:05.916Z,2.20
2018-02-03T06:26:08.357Z,2.17
2018-02-03T06:27:10.840Z,1.87
2018-02-03T06:28:13.319Z,2.53
2018-02-03T06:29:15.780Z,2.50
2018-02-03T06:30:18.257Z,2.40
2018-02-03T06:31:20.715Z,1.70
2018-02-03T06:32:23.170Z,1.77
2018-02-03T06:33:25.649Z,2.70
2018-02-03T06:34:28.110Z,2.17
2018-02-03T06:35:30.583Z,2.73
2018-02-03T06:36:33.046Z,2.97
2018-02-03T06:37:35.654Z,2.47
2018-02-03T06:38:38.114Z,2.07
2018-02-03T06:39:40.578Z,2.40
2018-02-03T06:40:43.051Z,1.87
2018-02-03T06:41:45.525Z,2.10
2018-02-03T06:42:47.996Z,1.93
2018-02-03T06:43:50.477Z,2.43
2018-02-03T06:44:52.938Z,1.90
2018-02-03T06:45:55.391Z,2.07
2018-02-03T06:46:57.860Z,2.20
2018-02-03T06:48:00.326Z,1.87
2018-02-03T06:49:02.800Z,2.07
2018-02-03T06:50:05.277Z,1.67
2018-02-03T06:51:07.744Z,1.93
2018-02-03T06:52:10.198Z,1.80
2018-02-03T06:53:12.669Z,2.60
2018-02-03T06:54:15.145Z,2.00
2018-02-03T06:55:17.629Z,2.07
2018-02-03T06:56:20.104Z,2.20
2018-02-03T06:57:22.558Z,2.23
2018-02-03T06:58:25.037Z,2.30
2018-02-03T06:59:27.520Z,2.30
2018-02-03T07:00:29.982Z,2.47
2018-02-03T07:01:32.461Z,3.30
2018-02-03T07:02:35.022Z,2.50
2018-02-03T07:03:37.478Z,2.60
2018-02-03T07:04:39.953Z,2.40
2018-02-03T07:05:42.419Z,2.23
2018-02-03T07:06:44.891Z,2.40
2018-02-03T07:07:47.373Z,2.43
2018-02-03T07:08:49.844Z,2.10
2018-02-03T07:09:52.299Z,2.60
2018-02-03T07:10:54.776Z,2.70
2018-02-03T07:11:57.318Z,2.73
2018-02-03T07:12:59.827Z,2.90
2018-02-03T07:14:02.300Z,2.97
2018-02-03T07:15:04.773Z,3.40
2018-02-03T07:16:07.244Z,2.47
2018-02-03T07:17:09.703Z,3.10
2018-02-03T07:18:12.178Z,3.07
2018-02-03T07:19:14.652Z,3.07
2018-02-03T07:20:17.102Z,3.33
2018-02-03T07:21:19.570Z,3.20
2018-02-03T07:22:22.026Z,3.10
2018-02-03T07:23:24.508Z,3.20
2018-02-03T07:24:26.973Z,3.10
2018-02-03T07:25:29.453Z,3.47
2018-02-03T07:26:31.919Z,3.90
2018-02-03T07:27:34.405Z,3.27
2018-02-03T07:28:36.875Z,3.40
2018-02-03T07:29:40.597Z,3.13
2018-02-03T07:30:43.519Z,3.00
2018-02-03T07:31:46.002Z,3.73
2018-02-03T07:32:48.526Z,4.03
2018-02-03T07:33:50.991Z,3.80
2018-02-03T07:34:53.678Z,4.20
2018-02-03T07:35:56.327Z,3.97
2018-02-03T07:36:58.818Z,3.70
2018-02-03T07:38:01.410Z,3.50
2018-02-03T07:39:03.898Z,4.33
2018-02-03T07:40:06.358Z,3.33
2018-02-03T07:41:08.829Z,3.60
2018-02-03T07:42:11.477Z,3.83
2018-02-03T07:43:14.032Z,3.50
2018-02-03T07:44:16.517Z,3.30
2018-02-03T07:45:18.992Z,4.10
2018-02-03T07:46:21.469Z,4.07
2018-02-03T07:47:23.952Z,4.23
2018-02-03T07:48:26.421Z,3.70
2018-02-03T07:49:28.901Z,4.33
2018-02-03T07:50:31.385Z,4.30
2018-02-03T07:51:33.860Z,4.27
2018-02-03T07:52:36.341Z,3.67
2018-02-03T07:53:38.806Z,3.93
2018-02-03T07:54:41.272Z,3.33
2018-02-03T07:55:43.730Z,3.73
2018-02-03T07:56:46.209Z,3.10
2018-02-03T07:57:48.679Z,3.50
2018-02-03T07:58:51.135Z,3.80
2018-02-03T07:59:53.631Z,4.03
2018-02-03T08:00:56.095Z,3.90
2018-02-03T08:01:58.594Z,3.30
2018-02-03T08:03:01.055Z,3.63
2018-02-03T08:04:03.511Z,3.37
2018-02-03T08:05:05.976Z,3.43
2018-02-03T08:06:08.442Z,3.63
2018-02-03T08:07:10.912Z,4.47
2018-02-03T08:08:13.372Z,3.83
2018-02-03T08:09:15.838Z,4.30
2018-02-03T08:10:18.318Z,4.33
2018-02-03T08:11:20.774Z,3.63
2018-02-03T08:12:23.245Z,3.97
2018-02-03T08:13:25.718Z,3.80
2018-02-03T08:14:28.183Z,4.00
2018-02-03T08:15:30.653Z,3.50
2018-02-03T08:16:33.152Z,3.70
2018-02-03T08:17:35.638Z,3.43
2018-02-03T08:18:38.117Z,4.00
2018-02-03T08:19:40.627Z,3.57
2018-02-03T08:20:43.090Z,4.00
2018-02-03T08:21:45.554Z,3.80
2018-02-03T08:22:48.008Z,3.60
2018-02-03T08:23:50.480Z,4.23
2018-02-03T08:24:52.940Z,3.83
2018-02-03T08:25:55.425Z,4.17
2018-02-03T08:26:57.914Z,4.13
2018-02-03T08:28:00.371Z,3.83
2018-02-03T08:29:02.855Z,4.70
2018-02-03T08:30:05.372Z,4.30
2018-02-03T08:31:07.844Z,4.40
2018-02-03T08:32:10.313Z,4.03
2018-02-03T08:33:12.793Z,4.40
2018-02-03T08:34:15.289Z,4.60
2018-02-03T08:35:17.744Z,4.63
2018-02-03T08:36:20.210Z,4.63
2018-02-03T08:37:22.939Z,5.10
2018-02-03T08:38:25.787Z,4.70
2018-02-03T08:39:28.582Z,4.90
2018-02-03T08:40:31.058Z,4.50
2018-02-03T08:41:33.519Z,5.33
2018-02-03T08:42:35.974Z,4.80
2018-02-03T08:43:38.443Z,4.83
2018-02-03T08:44:40.906Z,5.10
2018-02-03T08:45:43.376Z,4.80
2018-02-03T08:46:45.834Z,5.03
2018-02-03T08:47:48.334Z,4.90
2018-02-03T08:48:50.813Z,5.80
2018-02-03T08:49:53.283Z,5.30
2018-02-03T08:50:55.848Z,5.80
2018-02-03T08:51:58.354Z,6.50
2018-02-03T08:53:00.833Z,7.03
2018-02-03T08:54:03.298Z,7.03
2018-02-03T08:55:05.773Z,6.13
2018-02-03T08:56:08.235Z,5.33
2018-02-03T08:57:10.693Z,6.80
2018-02-03T08:58:13.158Z,6.00
2018-02-03T08:59:15.625Z,7.10
2018-02-03T09:00:18.086Z,8.23
2018-02-03T09:01:20.550Z,7.20
2018-02-03T09:02:23.031Z,8.10
2018-02-03T09:03:25.516Z,10.00
2018-02-03T09:04:27.974Z,8.10
2018-02-03T09:05:30.445Z,6.63
2018-02-03T09:06:32.980Z,8.67
2018-02-03T09:07:35.456Z,7.67
2018-02-03T09:08:37.910Z,8.30
2018-02-03T09:09:40.375Z,7.33
2018-02-03T09:10:42.839Z,7.20
2018-02-03T09:11:57.199Z,7.50
2018-02-03T09:12:59.677Z,6.83
2018-02-03T09:14:02.151Z,7.97
2018-02-03T09:15:04.611Z,8.57
2018-02-03T09:16:07.079Z,11.83
2018-02-03T09:17:09.564Z,15.13
2018-02-03T09:18:12.296Z,27.20
2018-02-03T09:19:14.808Z,36.30
2018-02-03T09:20:17.299Z,33.07
2018-02-03T09:21:20.067Z,29.10
2018-02-03T09:22:22.594Z,40.47
2018-02-03T09:23:25.295Z,36.03
2018-02-03T09:24:27.818Z,28.80
2018-02-03T09:25:30.290Z,22.03
2018-02-03T09:26:32.766Z,21.80
2018-02-03T09:27:35.256Z,20.80
2018-02-03T09:28:37.738Z,20.37
2018-02-03T09:29:40.225Z,24.40
2018-02-03T09:30:42.700Z,22.50
2018-02-03T09:31:45.185Z,19.20
2018-02-03T09:32:47.661Z,18.03
2018-02-03T09:33:50.127Z,16.60
2018-02-03T09:34:52.679Z,16.50
2018-02-03T09:35:55.161Z,16.40
2018-02-03T09:36:57.695Z,15.20
2018-02-03T09:38:00.163Z,15.10
2018-02-03T09:39:02.631Z,14.43
2018-02-03T09:40:05.123Z,14.97
2018-02-03T09:41:07.590Z,15.10
2018-02-03T09:42:10.061Z,14.20
2018-02-03T09:43:12.537Z,14.73
2018-02-03T09:44:15.010Z,12.80
2018-02-03T09:45:17.495Z,14.10
2018-02-03T09:46:19.971Z,12.80
2018-02-03T09:47:22.438Z,12.53
2018-02-03T09:48:24.921Z,12.67
2018-02-03T09:49:27.391Z,12.53
2018-02-03T09:50:29.869Z,11.67
2018-02-03T09:51:32.376Z,12.30
2018-02-03T09:52:34.863Z,11.67
2018-02-03T09:53:37.348Z,11.77
2018-02-03T09:54:39.841Z,12.10
2018-02-03T09:55:42.308Z,11.73
2018-02-03T09:56:44.776Z,11.73
2018-02-03T09:57:47.258Z,11.10
2018-02-03T09:58:49.726Z,12.10
2018-02-03T09:59:52.212Z,11.90
2018-02-03T10:00:54.697Z,10.30
2018-02-03T10:01:57.172Z,10.90
2018-02-03T10:02:59.643Z,10.83
2018-02-03T10:04:02.109Z,11.00
2018-02-03T10:05:04.592Z,10.93
2018-02-03T10:06:07.058Z,10.13
2018-02-03T10:07:09.523Z,10.23
2018-02-03T10:08:11.987Z,10.60
2018-02-03T10:09:14.455Z,10.40
2018-02-03T10:10:16.923Z,9.80
2018-02-03T10:11:19.387Z,10.93
2018-02-03T10:12:21.864Z,10.10
2018-02-03T10:13:24.364Z,10.57
2018-02-03T10:14:26.822Z,9.63
2018-02-03T10:15:29.301Z,10.13
2018-02-03T10:16:31.776Z,9.40
2018-02-03T10:17:34.405Z,10.10
2018-02-03T10:18:36.986Z,10.53
2018-02-03T10:19:39.454Z,9.30
2018-02-03T10:20:41.923Z,10.57
2018-02-03T10:21:44.473Z,9.13
2018-02-03T10:22:46.935Z,9.73
2018-02-03T10:23:49.409Z,9.73
2018-02-03T10:24:51.942Z,9.90
2018-02-03T10:25:54.407Z,9.37
2018-02-03T10:26:56.887Z,8.80
2018-02-03T10:27:59.346Z,9.30
2018-02-03T10:29:01.809Z,9.67
2018-02-03T10:30:04.335Z,9.37
2018-02-03T10:31:06.819Z,8.97
2018-02-03T10:32:09.279Z,8.83
2018-02-03T10:33:11.797Z,9.53
2018-02-03T10:34:14.262Z,9.07
2018-02-03T10:35:16.728Z,9.00
2018-02-03T10:36:19.205Z,9.70
2018-02-03T10:37:21.676Z,8.90
2018-02-03T10:38:24.163Z,8.43
2018-02-03T10:39:26.631Z,8.60
2018-02-03T10:40:29.092Z,8.30
2018-02-03T10:41:31.569Z,8.73
2018-02-03T10:42:34.030Z,8.47
2018-02-03T10:43:36.510Z,8.60
2018-02-03T10:44:38.989Z,9.67
2018-02-03T10:45:41.472Z,8.80
2018-02-03T10:46:43.940Z,8.70
2018-02-03T10:47:46.515Z,9.23
2018-02-03T10:48:48.984Z,8.40
2018-02-03T10:49:51.460Z,8.20
2018-02-03T10:50:53.941Z,7.93
2018-02-03T10:51:56.429Z,8.50
2018-02-03T10:52:58.891Z,8.10
2018-02-03T10:54:01.374Z,7.87
2018-02-03T10:55:03.872Z,7.63
2018-02-03T10:56:06.331Z,7.57
2018-02-03T10:57:08.823Z,8.23
2018-02-03T10:58:11.325Z,8.13
2018-02-03T10:59:13.856Z,8.00
2018-02-03T11:00:16.334Z,7.70
2018-02-03T11:01:18.821Z,7.90
2018-02-03T11:02:21.283Z,7.60
2018-02-03T11:03:23.757Z,7.87
2018-02-03T11:04:26.281Z,8.23
2018-02-03T11:05:28.746Z,7.20
2018-02-03T11:06:31.227Z,7.67
2018-02-03T11:07:33.719Z,7.77
2018-02-03T11:08:36.204Z,8.53
2018-02-03T11:09:38.690Z,8.03
2018-02-03T11:10:41.158Z,7.60
2018-02-03T11:11:43.633Z,7.67
2018-02-03T11:12:46.183Z,8.40
2018-02-03T11:13:48.646Z,7.47
2018-02-03T11:14:51.111Z,7.80
2018-02-03T11:15:53.585Z,7.87
2018-02-03T11:16:56.044Z,7.60
2018-02-03T11:17:58.518Z,7.17
2018-02-03T11:19:00.980Z,7.93
2018-02-03T11:20:03.446Z,7.20
2018-02-03T11:21:05.921Z,8.00
2018-02-03T11:22:08.396Z,7.60
2018-02-03T11:23:10.860Z,7.20
2018-02-03T11:24:13.338Z,6.60
2018-02-03T11:25:15.799Z,7.30
2018-02-03T11:26:18.293Z,7.13
2018-02-03T11:27:20.751Z,6.70
2018-02-03T11:28:23.225Z,7.70
2018-02-03T11:29:25.695Z,7.10
2018-02-03T11:30:28.146Z,6.50
2018-02-03T11:31:30.611Z,7.33
2018-02-03T11:32:33.102Z,7.37
2018-02-03T11:33:35.577Z,6.90
2018-02-03T11:34:38.069Z,7.33
2018-02-03T11:35:40.545Z,7.20
2018-02-03T11:36:43.006Z,6.00
2018-02-03T11:37:45.481Z,6.87
2018-02-03T11:38:47.957Z,6.83
2018-02-03T11:39:50.436Z,6.30
2018-02-03T11:40:52.908Z,6.37
2018-02-03T11:41:55.371Z,6.53
2018-02-03T11:42:57.834Z,6.40
2018-02-03T11:44:00.313Z,6.87
2018-02-03T11:45:02.794Z,6.23
2018-02-03T11:46:05.273Z,6.27
2018-02-03T11:47:07.765Z,6.27
2018-02-03T11:48:10.241Z,6.00
2018-02-03T11:49:12.746Z,6.80
2018-02-03T11:50:15.206Z,6.17
2018-02-03T11:51:17.663Z,6.47
2018-02-03T11:52:20.137Z,5.90
2018-02-03T11:53:22.609Z,5.97
2018-02-03T11:54:25.077Z,6.00
2018-02-03T11:55:27.562Z,5.80
2018-02-03T11:56:30.038Z,6.10
2018-02-03T11:57:32.508Z,5.90
2018-02-03T11:58:35.122Z,6.57
2018-02-03T11:59:37.597Z,6.37
2018-02-03T12:00:40.055Z,5.90
2018-02-03T12:01:42.515Z,5.70
2018-02-03T12:02:44.996Z,5.37
2018-02-03T12:03:47.477Z,5.40
2018-02-03T12:04:49.945Z,5.90
2018-02-03T12:05:52.414Z,6.17
2018-02-03T12:06:54.875Z,5.70
2018-02-03T12:07:57.356Z,5.57
2018-02-03T12:08:59.837Z,6.80
2018-02-03T12:10:02.295Z,5.87
2018-02-03T12:11:04.759Z,6.20
2018-02-03T12:12:07.227Z,5.20
2018-02-03T12:13:09.709Z,5.73
2018-02-03T12:14:12.184Z,5.50
2018-02-03T12:15:14.702Z,6.03
2018-02-03T12:16:17.159Z,5.60
2018-02-03T12:17:19.632Z,5.23
2018-02-03T12:18:22.105Z,6.07
2018-02-03T12:19:24.563Z,5.10
2018-02-03T12:20:27.141Z,5.10
2018-02-03T12:21:29.603Z,5.10
2018-02-03T12:22:32.075Z,5.10
2018-02-03T12:23:34.548Z,6.03
2018-02-03T12:24:37.029Z,6.17
2018-02-03T12:25:39.494Z,5.67
2018-02-03T12:26:41.951Z,5.90
2018-02-03T12:27:44.424Z,5.53
2018-02-03T12:28:46.886Z,5.50
2018-02-03T12:29:49.360Z,5.23
2018-02-03T12:30:51.823Z,5.40
2018-02-03T12:31:54.296Z,5.10
2018-02-03T12:32:56.772Z,5.00
2018-02-03T12:33:59.399Z,5.57
2018-02-03T12:35:01.863Z,4.90
2018-02-03T12:36:04.359Z,5.47
2018-02-03T12:37:06.815Z,5.30
2018-02-03T12:38:09.297Z,5.13
2018-02-03T12:39:11.774Z,4.97
2018-02-03T12:40:14.576Z,4.77
2018-02-03T12:41:17.055Z,4.60
2018-02-03T12:42:19.529Z,5.20
2018-02-03T12:43:22.033Z,4.83
2018-02-03T12:44:24.491Z,4.47
2018-02-03T12:45:26.969Z,4.63
2018-02-03T12:46:29.434Z,4.83
2018-02-03T12:47:31.893Z,5.60
2018-02-03T12:48:34.365Z,5.70
2018-02-03T12:49:36.823Z,5.23
2018-02-03T12:50:39.296Z,4.73
2018-02-03T12:51:41.762Z,5.13
2018-02-03T12:52:44.225Z,5.27
2018-02-03T12:53:46.694Z,4.50
2018-02-03T12:54:49.163Z,5.53
2018-02-03T12:55:51.619Z,5.50
2018-02-03T12:56:54.094Z,4.20
2018-02-03T12:57:56.560Z,5.00
2018-02-03T12:58:59.019Z,4.43
2018-02-03T13:00:01.497Z,4.47
2018-02-03T13:01:03.977Z,4.70
2018-02-03T13:02:06.450Z,4.50
2018-02-03T13:03:08.911Z,4.90
2018-02-03T13:04:11.375Z,4.60
2018-02-03T13:05:13.900Z,4.20
2018-02-03T13:06:16.373Z,4.70
2018-02-03T13:07:18.846Z,4.30
2018-02-03T13:08:21.324Z,4.40
2018-02-03T13:09:23.824Z,4.23
2018-02-03T13:10:26.302Z,4.07
2018-02-03T13:11:28.780Z,4.03
2018-02-03T13:12:31.266Z,4.70
2018-02-03T13:13:33.763Z,4.10
2018-02-03T13:14:36.234Z,4.00
2018-02-03T13:15:38.784Z,5.00
2018-02-03T13:16:41.260Z,4.00
2018-02-03T13:17:43.715Z,3.90
2018-02-03T13:18:46.260Z,4.00
2018-02-03T13:19:48.761Z,3.50
2018-02-03T13:20:51.232Z,3.83
2018-02-03T13:21:53.716Z,3.50
2018-02-03T13:22:56.201Z,4.40
2018-02-03T13:23:58.779Z,4.10
2018-02-03T13:25:01.253Z,4.03
2018-02-03T13:26:04.182Z,4.00
2018-02-03T13:27:07.011Z,3.87
2018-02-03T13:28:09.475Z,4.00
2018-02-03T13:29:11.939Z,4.07
2018-02-03T13:30:14.399Z,4.33
2018-02-03T13:31:16.873Z,3.80
2018-02-03T13:32:19.415Z,3.63
2018-02-03T13:33:21.886Z,4.03
2018-02-03T13:34:24.369Z,4.37
2018-02-03T13:35:26.840Z,3.97
2018-02-03T13:36:29.318Z,5.23
2018-02-03T13:37:31.826Z,4.67
2018-02-03T13:38:34.292Z,4.83
2018-02-03T13:39:36.758Z,4.57
2018-02-03T13:40:39.231Z,4.43
2018-02-03T13:41:41.759Z,3.53
2018-02-03T13:42:44.218Z,4.20
2018-02-03T13:43:46.681Z,3.90
2018-02-03T13:44:49.157Z,4.30
2018-02-03T13:45:51.611Z,4.30
2018-02-03T13:46:54.071Z,4.30
2018-02-03T13:47:56.542Z,4.30
2018-02-03T13:48:59.010Z,4.23
2018-02-03T13:50:01.666Z,4.03
2018-02-03T13:51:04.274Z,3.57